createdAt,value
2018-09-25T00:00:09.155Z,4.55
2018-09-25T00:02:41.892Z,4.35
2018-09-25T00:05:14.587Z,4.15
2018-09-25T00:07:47.225Z,5.30
2018-09-25T00:10:20.002Z,4.55
2018-09-25T00:12:52.651Z,4.20
2018-09-25T00:15:25.334Z,4.75
2018-09-25T00:17:58.036Z,4.20
2018-09-25T00:20:30.876Z,4.58
2018-09-25T00:23:03.638Z,4.03
2018-09-25T00:25:36.219Z,4.67
2018-09-25T00:28:08.967Z,4.90
2018-09-25T00:30:41.526Z,4.62
2018-09-25T00:33:14.211Z,4.65
2018-09-25T00:35:46.851Z,5.10
2018-09-25T00:38:19.618Z,4.85
2018-09-25T00:40:52.355Z,4.60
2018-09-25T00:43:25.096Z,5.05
2018-09-25T00:45:57.824Z,4.20
2018-09-25T00:48:30.470Z,4.55
2018-09-25T00:51:03.160Z,4.53
2018-09-25T00:53:35.863Z,4.30
2018-09-25T00:56:08.585Z,4.90
2018-09-25T00:58:41.309Z,4.90
2018-09-25T01:01:14.067Z,4.60
2018-09-25T01:03:46.692Z,5.00
2018-09-25T01:06:19.447Z,4.40
2018-09-25T01:08:52.054Z,4.67
2018-09-25T01:11:24.754Z,5.10
2018-09-25T01:13:57.483Z,5.17
2018-09-25T01:16:30.191Z,4.80
2018-09-25T01:19:02.844Z,5.10
2018-09-25T01:21:35.547Z,4.80
2018-09-25T01:24:08.146Z,5.08
2018-09-25T01:26:40.905Z,4.92
2018-09-25T01:29:13.657Z,4.75
2018-09-25T01:31:46.415Z,4.62
2018-09-25T01:34:19.143Z,4.92
2018-09-25T01:36:51.847Z,5.50
2018-09-25T01:39:24.575Z,7.28
2018-09-25T01:41:57.336Z,6.80
2018-09-25T01:44:30.016Z,5.83
2018-09-25T01:47:02.659Z,5.80
2018-09-25T01:49:35.274Z,5.50
2018-09-25T01:52:07.890Z,6.10
2018-09-25T01:54:40.565Z,6.20
2018-09-25T01:57:13.290Z,6.65
2018-09-25T01:59:45.934Z,5.87
2018-09-25T02:02:18.750Z,6.40
2018-09-25T02:04:51.453Z,6.20
2018-09-25T02:07:24.237Z,5.95
2018-09-25T02:09:56.846Z,5.50
2018-09-25T02:12:29.696Z,5.33
2018-09-25T02:15:02.358Z,5.80
2018-09-25T02:17:35.025Z,5.15
2018-09-25T02:20:07.700Z,5.05
2018-09-25T02:22:40.383Z,5.58
2018-09-25T02:25:13.084Z,5.30
2018-09-25T02:27:45.591Z,6.75
2018-09-25T02:30:18.247Z,4.70
2018-09-25T02:32:50.942Z,4.83
2018-09-25T02:35:23.755Z,5.25
2018-09-25T02:37:56.595Z,5.17
2018-09-25T02:40:29.222Z,5.40
2018-09-25T02:43:01.982Z,5.00
2018-09-25T02:45:34.735Z,5.80
2018-09-25T02:48:07.475Z,5.45
2018-09-25T02:50:40.124Z,5.80
2018-09-25T02:53:12.772Z,6.08
2018-09-25T02:55:45.505Z,5.20
2018-09-25T02:58:18.215Z,5.22
2018-09-25T03:00:51.017Z,5.30
2018-09-25T03:03:23.653Z,5.35
2018-09-25T03:05:56.294Z,5.60
2018-09-25T03:08:29.055Z,5.17
2018-09-25T03:11:01.711Z,5.40
2018-09-25T03:13:34.338Z,5.40
2018-09-25T03:16:07.056Z,5.83
2018-09-25T03:18:39.822Z,6.08
2018-09-25T03:21:12.555Z,6.72
2018-09-25T03:23:45.259Z,5.33
2018-09-25T03:26:17.901Z,5.70
2018-09-25T03:28:50.644Z,5.30
2018-09-25T03:31:23.247Z,5.90
2018-09-25T03:33:56.063Z,5.33
2018-09-25T03:36:28.795Z,6.12
2018-09-25T03:39:01.459Z,5.90
2018-09-25T03:41:41.103Z,5.35
2018-09-25T03:44:13.774Z,5.80
2018-09-25T03:46:46.515Z,5.80
2018-09-25T03:49:19.142Z,5.25
2018-09-25T03:51:51.881Z,6.10
2018-09-25T03:54:24.651Z,6.37
2018-09-25T03:56:57.275Z,6.20
2018-09-25T03:59:29.896Z,5.20
2018-09-25T04:02:02.638Z,5.60
2018-09-25T04:04:35.294Z,5.37
2018-09-25T04:07:07.995Z,5.78
2018-09-25T04:09:40.675Z,6.00
2018-09-25T04:12:13.375Z,5.28
2018-09-25T04:14:46.111Z,6.10
2018-09-25T04:17:18.830Z,6.10
2018-09-25T04:19:51.592Z,6.05
2018-09-25T04:22:24.337Z,5.80
2018-09-25T04:24:57.042Z,5.62
2018-09-25T04:27:29.799Z,5.70
2018-09-25T04:30:02.261Z,5.30
2018-09-25T04:32:34.791Z,4.83
2018-09-25T04:35:07.530Z,5.25
2018-09-25T04:37:40.299Z,4.70
2018-09-25T04:40:12.911Z,5.40
2018-09-25T04:42:45.673Z,5.80
2018-09-25T04:45:18.458Z,5.45
2018-09-25T04:47:51.321Z,6.50
2018-09-25T04:50:24.018Z,5.55
2018-09-25T04:52:56.667Z,5.53
2018-09-25T04:55:29.327Z,6.45
2018-09-25T04:58:02.159Z,6.10
2018-09-25T05:00:34.882Z,9.18
2018-09-25T05:03:07.588Z,9.70
2018-09-25T05:05:40.231Z,9.85
2018-09-25T05:08:12.939Z,10.08
2018-09-25T05:10:45.760Z,8.73
2018-09-25T05:13:18.544Z,9.40
2018-09-25T05:15:51.284Z,7.90
2018-09-25T05:18:23.965Z,8.33
2018-09-25T05:20:56.788Z,8.15
2018-09-25T05:23:29.681Z,8.35
2018-09-25T05:26:02.291Z,9.30
2018-09-25T05:28:34.973Z,8.90
2018-09-25T05:31:07.765Z,8.95
2018-09-25T05:33:40.539Z,8.48
2018-09-25T05:36:13.272Z,8.08
2018-09-25T05:38:45.998Z,7.35
2018-09-25T05:41:18.695Z,7.33
2018-09-25T05:43:51.412Z,7.12
2018-09-25T05:46:24.003Z,6.70
2018-09-25T05:48:56.756Z,7.92
2018-09-25T05:51:29.316Z,6.85
2018-09-25T05:54:02.028Z,7.70
2018-09-25T05:56:34.752Z,9.23
2018-09-25T05:59:07.526Z,7.83
2018-09-25T06:01:40.051Z,7.70
2018-09-25T06:04:12.670Z,7.58
2018-09-25T06:06:45.364Z,7.28
2018-09-25T06:09:18.103Z,7.55
2018-09-25T06:11:50.843Z,7.80
2018-09-25T06:14:23.630Z,8.53
2018-09-25T06:16:56.320Z,7.05
2018-09-25T06:19:29.129Z,7.95
2018-09-25T06:22:01.913Z,6.70
2018-09-25T06:24:34.593Z,6.60
2018-09-25T06:27:07.286Z,7.90
2018-09-25T06:29:40.023Z,8.23
2018-09-25T06:32:12.783Z,7.78
2018-09-25T06:34:45.480Z,6.65
2018-09-25T06:37:18.215Z,7.53
2018-09-25T06:39:50.947Z,7.33
2018-09-25T06:42:23.634Z,6.67
2018-09-25T06:44:56.229Z,6.05
2018-09-25T06:47:28.854Z,5.72
2018-09-25T06:50:01.551Z,6.17
2018-09-25T06:52:34.323Z,5.78
2018-09-25T06:55:07.019Z,5.72
2018-09-25T06:57:39.836Z,5.75
2018-09-25T07:00:12.619Z,5.83
2018-09-25T07:02:45.363Z,6.17
2018-09-25T07:05:18.186Z,6.97
2018-09-25T07:07:50.965Z,5.75
2018-09-25T07:10:23.802Z,7.00
2018-09-25T07:12:56.479Z,6.90
2018-09-25T07:15:29.069Z,7.22
2018-09-25T07:18:01.850Z,6.28
2018-09-25T07:20:34.404Z,6.47
2018-09-25T07:23:07.198Z,7.55
2018-09-25T07:25:39.821Z,7.62
2018-09-25T07:28:12.605Z,8.50
2018-09-25T07:30:45.282Z,8.78
2018-09-25T07:33:18.020Z,8.05
2018-09-25T07:35:50.795Z,10.75
2018-09-25T07:38:23.499Z,10.08
2018-09-25T07:40:56.251Z,9.05
2018-09-25T07:43:28.937Z,9.48
2018-09-25T07:46:01.602Z,8.70
2018-09-25T07:48:34.311Z,9.20
2018-09-25T07:51:06.969Z,8.33
2018-09-25T07:53:39.771Z,8.48
2018-09-25T07:56:12.590Z,7.83
2018-09-25T07:58:45.269Z,5.97
2018-09-25T08:01:18.105Z,7.03
2018-09-25T08:03:50.843Z,6.35
2018-09-25T08:06:23.490Z,6.60
2018-09-25T08:08:56.340Z,5.30
2018-09-25T08:11:28.956Z,6.20
2018-09-25T08:14:01.608Z,6.35
2018-09-25T08:16:34.360Z,6.30
2018-09-25T08:19:07.100Z,7.83
2018-09-25T08:21:39.850Z,6.20
2018-09-25T08:24:12.622Z,6.08
2018-09-25T08:26:45.383Z,6.30
2018-09-25T08:29:17.970Z,6.58
2018-09-25T08:31:50.679Z,6.90
2018-09-25T08:34:23.356Z,5.80
2018-09-25T08:36:56.131Z,5.85
2018-09-25T08:39:29.024Z,6.08
2018-09-25T08:42:01.638Z,5.67
2018-09-25T08:44:34.367Z,4.08
2018-09-25T08:47:07.119Z,4.85
2018-09-25T08:49:39.926Z,4.53
2018-09-25T08:52:12.727Z,4.78
2018-09-25T08:54:45.370Z,3.62
2018-09-25T08:57:18.076Z,4.17
2018-09-25T08:59:50.859Z,3.60
2018-09-25T09:02:23.560Z,3.17
2018-09-25T09:04:56.266Z,3.40
2018-09-25T09:07:28.938Z,3.52
2018-09-25T09:10:01.694Z,4.45
2018-09-25T09:12:34.465Z,3.70
2018-09-25T09:15:07.291Z,3.50
2018-09-25T09:17:40.041Z,3.05
2018-09-25T09:20:12.903Z,2.50
2018-09-25T09:22:45.500Z,3.37
2018-09-25T09:25:18.334Z,3.15
2018-09-25T09:27:51.099Z,3.22
2018-09-25T09:30:23.797Z,2.58
2018-09-25T09:32:56.563Z,3.35
2018-09-25T09:35:29.316Z,4.65
2018-09-25T09:38:02.089Z,3.55
2018-09-25T09:40:34.830Z,8.05
2018-09-25T09:43:07.640Z,7.12
2018-09-25T09:45:40.446Z,4.40
2018-09-25T09:48:13.202Z,2.70
2018-09-25T09:50:45.871Z,2.33
2018-09-25T09:53:18.712Z,2.67
2018-09-25T09:55:51.359Z,3.80
2018-09-25T09:58:24.119Z,2.40
2018-09-25T10:00:56.804Z,2.70
2018-09-25T10:03:29.528Z,3.25
2018-09-25T10:06:02.219Z,2.00
2018-09-25T10:08:35.023Z,2.02
2018-09-25T10:11:07.727Z,2.62
2018-09-25T10:13:40.502Z,3.10
2018-09-25T10:16:13.340Z,2.47
2018-09-25T10:18:45.967Z,2.52
2018-09-25T10:21:18.620Z,2.52
2018-09-25T10:23:51.318Z,2.47
2018-09-25T10:26:24.131Z,2.52
2018-09-25T10:28:56.877Z,2.40
2018-09-25T10:31:29.691Z,2.80
2018-09-25T10:34:02.411Z,2.60
2018-09-25T10:36:35.119Z,1.82
2018-09-25T10:39:07.841Z,2.87
2018-09-25T10:41:40.542Z,2.83
2018-09-25T10:44:13.160Z,2.10
2018-09-25T10:46:45.869Z,2.95
2018-09-25T10:49:18.686Z,1.80
2018-09-25T10:51:51.422Z,1.92
2018-09-25T10:54:24.098Z,1.75
2018-09-25T10:56:56.879Z,1.80
2018-09-25T10:59:29.672Z,2.17
2018-09-25T11:02:02.355Z,1.80
2018-09-25T11:04:35.069Z,1.50
2018-09-25T11:07:07.856Z,1.40
2018-09-25T11:09:40.576Z,1.87
2018-09-25T11:12:13.120Z,1.60
2018-09-25T11:14:45.886Z,1.30
2018-09-25T11:17:18.503Z,1.40
2018-09-25T11:19:51.351Z,1.45
2018-09-25T11:22:23.982Z,1.17
2018-09-25T11:24:56.658Z,1.25
2018-09-25T11:27:29.252Z,1.75
2018-09-25T11:30:01.967Z,1.15
2018-09-25T11:32:34.527Z,1.90
2018-09-25T11:35:07.271Z,1.40
2018-09-25T11:37:40.111Z,1.90
2018-09-25T11:40:12.939Z,1.50
2018-09-25T11:42:45.774Z,1.10
2018-09-25T11:45:18.607Z,1.40
2018-09-25T11:47:51.380Z,1.50
2018-09-25T11:50:24.078Z,1.45
2018-09-25T11:52:56.771Z,1.00
2018-09-25T11:55:29.429Z,1.52
2018-09-25T11:58:02.147Z,1.30
2018-09-25T12:00:34.838Z,1.50
2018-09-25T12:03:07.448Z,0.93
2018-09-25T12:05:40.246Z,1.10
2018-09-25T12:08:13.081Z,1.80
2018-09-25T12:10:45.791Z,1.25
2018-09-25T12:13:18.486Z,1.27
2018-09-25T12:15:51.095Z,0.95
2018-09-25T12:18:23.646Z,1.87
2018-09-25T12:20:56.265Z,1.90
2018-09-25T12:23:29.141Z,1.60
2018-09-25T12:26:01.793Z,0.98
2018-09-25T12:28:34.562Z,1.17
2018-09-25T12:31:07.231Z,1.15
2018-09-25T12:33:39.882Z,1.27
2018-09-25T12:36:12.571Z,1.05
2018-09-25T12:38:45.238Z,1.77
2018-09-25T12:41:17.855Z,2.20
2018-09-25T12:43:50.618Z,1.52
2018-09-25T12:46:23.477Z,1.17
2018-09-25T12:48:56.170Z,0.60
2018-09-25T12:51:28.831Z,2.10
2018-09-25T12:54:01.539Z,0.88
2018-09-25T12:56:34.219Z,1.30
2018-09-25T12:59:06.866Z,0.72
2018-09-25T13:01:39.699Z,0.82
2018-09-25T13:04:12.495Z,1.02
2018-09-25T13:06:45.288Z,0.82
2018-09-25T13:09:18.031Z,1.00
2018-09-25T13:11:50.791Z,1.10
2018-09-25T13:14:23.564Z,0.90
2018-09-25T13:16:56.245Z,1.45
2018-09-25T13:19:28.923Z,1.42
2018-09-25T13:22:01.673Z,0.93
2018-09-25T13:24:34.347Z,1.40
2018-09-25T13:27:07.024Z,1.37
2018-09-25T13:29:39.676Z,1.52
2018-09-25T13:32:12.698Z,1.30
2018-09-25T13:34:45.411Z,0.98
2018-09-25T13:37:18.162Z,1.25
2018-09-25T13:39:50.871Z,1.00
2018-09-25T13:42:23.654Z,1.10
2018-09-25T13:44:56.335Z,1.32
2018-09-25T13:47:29.082Z,0.90
2018-09-25T13:50:01.836Z,1.55
2018-09-25T13:52:34.673Z,1.00
2018-09-25T13:55:07.251Z,1.17
2018-09-25T13:57:39.835Z,0.90
2018-09-25T14:00:12.469Z,1.50
2018-09-25T14:02:45.050Z,1.62
2018-09-25T14:05:17.736Z,0.90
2018-09-25T14:07:50.379Z,1.40
2018-09-25T14:10:23.100Z,2.33
2018-09-25T14:12:55.781Z,1.47
2018-09-25T14:15:28.588Z,2.10
2018-09-25T14:18:01.299Z,1.25
2018-09-25T14:20:33.979Z,1.55
2018-09-25T14:23:06.660Z,1.02
2018-09-25T14:25:39.294Z,5.33
2018-09-25T14:28:11.994Z,1.70
2018-09-25T14:30:44.745Z,1.30
2018-09-25T14:33:17.439Z,1.00
2018-09-25T14:35:50.166Z,1.02
2018-09-25T14:38:22.856Z,1.30
2018-09-25T14:40:55.640Z,1.10
2018-09-25T14:43:28.410Z,1.20
2018-09-25T14:46:01.084Z,1.02
2018-09-25T14:48:33.825Z,1.60
2018-09-25T14:51:06.545Z,0.98
2018-09-25T14:53:39.242Z,1.15
2018-09-25T14:56:11.758Z,1.10
2018-09-25T14:58:44.315Z,1.32
2018-09-25T15:01:16.989Z,0.90
2018-09-25T15:03:49.751Z,0.93
2018-09-25T15:06:22.454Z,0.88
2018-09-25T15:08:55.150Z,1.20
2018-09-25T15:11:27.890Z,1.90
2018-09-25T15:14:00.569Z,1.00
2018-09-25T15:16:33.307Z,0.77
2018-09-25T15:19:05.968Z,1.13
2018-09-25T15:21:38.878Z,1.07
2018-09-25T15:24:11.415Z,1.80
2018-09-25T15:26:44.141Z,1.35
2018-09-25T15:29:16.800Z,1.37
2018-09-25T15:31:49.476Z,0.75
2018-09-25T15:34:22.220Z,1.05
2018-09-25T15:36:54.963Z,0.72
2018-09-25T15:39:27.583Z,1.05
2018-09-25T15:42:00.330Z,1.45
2018-09-25T15:44:33.087Z,1.30
2018-09-25T15:47:05.856Z,1.02
2018-09-25T15:49:38.446Z,2.37
2018-09-25T15:52:11.228Z,1.07
2018-09-25T15:54:44.075Z,1.40
2018-09-25T15:57:16.661Z,1.40
2018-09-25T15:59:49.390Z,1.03
2018-09-25T16:02:22.093Z,2.00
2018-09-25T16:04:54.799Z,4.97
2018-09-25T16:07:27.756Z,1.65
2018-09-25T16:10:00.498Z,1.45
2018-09-25T16:12:33.237Z,1.72
2018-09-25T16:15:05.958Z,1.30
2018-09-25T16:17:38.653Z,1.90
2018-09-25T16:20:11.418Z,1.47
2018-09-25T16:22:44.181Z,1.50
2018-09-25T16:25:16.981Z,0.90
2018-09-25T16:27:49.764Z,2.00
2018-09-25T16:30:22.516Z,1.40
2018-09-25T16:32:55.233Z,1.57
2018-09-25T16:35:28.020Z,1.52
2018-09-25T16:38:00.703Z,2.40
2018-09-25T16:40:33.423Z,1.67
2018-09-25T16:43:06.007Z,3.35
2018-09-25T16:45:38.709Z,2.70
2018-09-25T16:48:11.446Z,2.90
2018-09-25T16:50:44.162Z,2.62
2018-09-25T16:53:16.781Z,2.35
2018-09-25T16:55:49.515Z,1.45
2018-09-25T16:58:22.260Z,2.55
2018-09-25T17:00:55.059Z,5.50
2018-09-25T17:03:27.680Z,7.30
2018-09-25T17:06:00.364Z,10.35
2018-09-25T17:08:32.968Z,5.80
2018-09-25T17:11:05.654Z,4.87
2018-09-25T17:13:38.483Z,3.75
2018-09-25T17:16:11.111Z,4.58
2018-09-25T17:18:43.834Z,4.50
2018-09-25T17:21:16.621Z,5.67
2018-09-25T17:23:49.394Z,16.90
2018-09-25T17:26:22.110Z,21.77
2018-09-25T17:28:54.822Z,16.62
2018-09-25T17:31:27.535Z,45.48
2018-09-25T17:34:00.309Z,42.00
2018-09-25T17:36:32.963Z,27.90
2018-09-25T17:39:05.604Z,22.05
2018-09-25T17:41:38.598Z,22.00
2018-09-25T17:44:11.198Z,11.12
2018-09-25T17:46:43.770Z,9.53
2018-09-25T17:49:16.569Z,5.37
2018-09-25T17:51:49.360Z,3.90
2018-09-25T17:54:22.147Z,5.17
2018-09-25T17:56:54.952Z,4.67
2018-09-25T17:59:27.736Z,4.00
2018-09-25T18:02:00.431Z,4.20
2018-09-25T18:04:33.092Z,3.80
2018-09-25T18:07:05.700Z,4.92
2018-09-25T18:09:38.449Z,5.30
2018-09-25T18:12:11.061Z,5.30
2018-09-25T18:14:43.941Z,5.00
2018-09-25T18:17:16.575Z,4.50
2018-09-25T18:19:49.289Z,11.53
2018-09-25T18:22:21.982Z,10.85
2018-09-25T18:24:54.620Z,9.38
2018-09-25T18:27:27.247Z,6.80
2018-09-25T18:30:00.018Z,6.90
2018-09-25T18:32:32.616Z,5.40
2018-09-25T18:35:05.346Z,6.15
2018-09-25T18:37:37.998Z,5.80
2018-09-25T18:40:10.746Z,5.72
2018-09-25T18:42:43.355Z,6.53
2018-09-25T18:45:16.197Z,5.70
2018-09-25T18:47:48.943Z,5.37
2018-09-25T18:50:21.706Z,5.08
2018-09-25T18:52:54.367Z,5.17
2018-09-25T18:55:27.071Z,4.80
2018-09-25T18:57:59.822Z,4.55
2018-09-25T19:00:32.530Z,4.80
2018-09-25T19:03:05.298Z,4.92
2018-09-25T19:05:38.082Z,8.85
2018-09-25T19:08:10.819Z,5.87
2018-09-25T19:10:43.682Z,6.95
2018-09-25T19:13:16.433Z,6.85
2018-09-25T19:15:49.272Z,5.97
2018-09-25T19:18:22.011Z,7.67
2018-09-25T19:20:54.763Z,7.03
2018-09-25T19:23:27.458Z,6.25
2018-09-25T19:26:00.067Z,6.30
2018-09-25T19:28:32.826Z,6.55
2018-09-25T19:31:05.526Z,5.97
2018-09-25T19:33:38.146Z,6.65
2018-09-25T19:36:10.839Z,5.97
2018-09-25T19:38:43.445Z,6.72
2018-09-25T19:41:16.271Z,7.40
2018-09-25T19:43:48.904Z,5.85
2018-09-25T19:46:21.651Z,5.97
2018-09-25T19:48:54.394Z,6.03
2018-09-25T19:51:26.981Z,6.97
2018-09-25T19:53:59.713Z,7.22
2018-09-25T19:56:32.451Z,6.15
2018-09-25T19:59:05.093Z,7.08
2018-09-25T20:01:37.731Z,6.20
2018-09-25T20:04:10.489Z,6.03
2018-09-25T20:06:43.100Z,5.28
2018-09-25T20:09:15.803Z,5.00
2018-09-25T20:11:48.460Z,6.17
2018-09-25T20:14:21.107Z,5.37
2018-09-25T20:16:53.840Z,5.42
2018-09-25T20:19:26.533Z,5.58
2018-09-25T20:21:59.285Z,6.42
2018-09-25T20:24:31.876Z,8.30
2018-09-25T20:27:04.603Z,5.87
2018-09-25T20:29:37.336Z,6.50
2018-09-25T20:32:10.158Z,6.45
2018-09-25T20:34:42.879Z,6.62
2018-09-25T20:37:15.744Z,9.60
2018-09-25T20:39:48.358Z,21.23
2018-09-25T20:42:21.037Z,13.88
2018-09-25T20:44:53.770Z,8.05
2018-09-25T20:47:26.492Z,7.00
2018-09-25T20:49:59.287Z,5.70
2018-09-25T20:52:32.056Z,7.08
2018-09-25T20:55:04.812Z,6.83
2018-09-25T20:57:37.542Z,6.40
2018-09-25T21:00:10.336Z,6.05
2018-09-25T21:02:43.088Z,6.92
2018-09-25T21:05:15.800Z,6.40
2018-09-25T21:07:48.528Z,6.50
2018-09-25T21:10:21.350Z,6.97
2018-09-25T21:12:53.998Z,6.97
2018-09-25T21:15:26.659Z,6.80
2018-09-25T21:17:59.404Z,6.75
2018-09-25T21:20:32.045Z,6.95
2018-09-25T21:23:04.814Z,7.37
2018-09-25T21:25:37.419Z,8.18
2018-09-25T21:28:10.140Z,8.95
2018-09-25T21:30:42.811Z,10.70
2018-09-25T21:33:15.628Z,24.00
2018-09-25T21:35:48.346Z,26.75
2018-09-25T21:38:21.094Z,18.62
2018-09-25T21:40:53.894Z,49.00
2018-09-25T21:43:26.556Z,20.77
2018-09-25T21:45:59.249Z,17.50
2018-09-25T21:48:31.971Z,13.45
2018-09-25T21:51:04.742Z,18.40
2018-09-25T21:53:37.325Z,15.95
2018-09-25T21:56:10.091Z,14.93
2018-09-25T21:58:42.866Z,14.28
2018-09-25T22:01:15.648Z,13.60
2018-09-25T22:03:48.441Z,14.78
2018-09-25T22:06:21.093Z,13.28
2018-09-25T22:08:53.803Z,10.32
2018-09-25T22:11:26.584Z,10.32
2018-09-25T22:13:59.319Z,10.43
2018-09-25T22:16:31.948Z,9.13
2018-09-25T22:19:04.716Z,6.83
2018-09-25T22:21:37.384Z,7.60
2018-09-25T22:24:10.182Z,8.03
2018-09-25T22:26:42.784Z,7.78
2018-09-25T22:29:15.448Z,7.72
2018-09-25T22:31:48.191Z,7.72
2018-09-25T22:34:20.934Z,8.45
2018-09-25T22:36:53.595Z,7.12
2018-09-25T22:39:26.236Z,8.65
2018-09-25T22:41:58.954Z,8.03
2018-09-25T22:44:31.749Z,8.13
2018-09-25T22:47:04.503Z,7.67
2018-09-25T22:49:37.422Z,8.55
2018-09-25T22:52:10.159Z,9.80
2018-09-25T22:54:42.814Z,9.63
2018-09-25T22:57:15.552Z,8.43
2018-09-25T22:59:48.290Z,9.18
2018-09-25T23:02:21.025Z,9.05
2018-09-25T23:04:53.770Z,9.40
2018-09-25T23:07:26.522Z,8.20
2018-09-25T23:09:59.223Z,8.75
2018-09-25T23:12:31.879Z,9.08
2018-09-25T23:15:04.574Z,8.75
2018-09-25T23:17:37.254Z,9.95
2018-09-25T23:20:10.039Z,9.90
2018-09-25T23:22:42.767Z,8.75
2018-09-25T23:25:15.334Z,9.33
2018-09-25T23:27:48.024Z,9.40
2018-09-25T23:30:20.692Z,9.23
2018-09-25T23:32:53.430Z,8.68
2018-09-25T23:35:26.265Z,9.55
2018-09-25T23:37:59.048Z,9.60
2018-09-25T23:40:28.943Z,8.63
2018-09-25T23:43:01.688Z,8.95
2018-09-25T23:45:34.423Z,8.35
2018-09-25T23:49:08.985Z,8.10
2018-09-25T23:51:41.790Z,8.83
2018-09-25T23:54:21.668Z,8.45
2018-09-25T23:56:55.479Z,7.70
